• Join FlightAware (Why Join?)
  • Login
  • US Flag 
01:14PM EDT


 

Airport Tracker/Info


-or-


 

Live Flight TrackerFlight Track Log ✈ RPA3321 ✈ 11-Aug-2013 ✈ KDCA - KCLT

Flight Track Log - Related Links

Times and Time Zones

All times are in EDT time to prevent confusion due to time zone crossing. See the RPA3321 flight status page for this flight to view local times or setup timezone preferences in your user account.

Time Position Orientation Groundspeed Altitude Reporting Facility
EDT Latitude Longitude Course Direction KTS MPH feet Rate Location/Type
11:18AM 38.8000 -77.0333 225° Southwest 177 204 1,500  Level Potomac TRACON
11:19AM 38.7500 -77.0500 195° South 233 268 3,800 2,400 Climbing Potomac TRACON
11:20AM 38.6389 -77.2778 218° Southwest  Level FlightAware Approximate
11:21AM 38.5619 -77.3548 218° Southwest  Level FlightAware Approximate
11:21AM 38.6758 -77.1581 229° Southwest 270 311 8,000  Level Washington Center
11:22AM 38.4900 -77.4391 225° Southwest  Level FlightAware Approximate
11:22AM 38.6250 -77.2339 229° Southwest 270 311 10,800  Level Washington Center
11:23AM 38.4211 -77.5276 225° Southwest  Level FlightAware Approximate
11:23AM 38.5697 -77.3125 228° Southwest 285 328 13,100  Level Washington Center
11:24AM 38.5100 -77.4039 230° Southwest 311 358 15,300 2,100 Climbing Washington Center
11:25AM 38.4481 -77.4925 228° Southwest 333 383 17,300 1,980 Climbing Washington Center
11:26AM 38.3839 -77.5889 230° Southwest 346 398 19,300 1,860 Climbing Washington Center
11:27AM 38.3219 -77.6825 230° Southwest 351 404 21,200 1,740 Climbing Washington Center
11:28AM 38.2556 -77.7836 230° Southwest 362 417 22,900 1,560 Climbing Washington Center
11:29AM 38.1844 -77.8925 230° Southwest 374 430 24,300 1,380 Climbing Washington Center
11:30AM 38.1158 -77.9986 231° Southwest 374 430 25,700 1,320 Climbing Washington Center
11:31AM 38.0447 -78.1044 230° Southwest 385 443 27,000 1,140 Climbing Washington Center
11:32AM 37.9800 -78.2106 232° Southwest 385 443 28,000 480 Climbing Washington Center
11:33AM 37.9044 -78.3183 228° Southwest 398 458 28,000  Level Washington Center
11:34AM 37.8247 -78.4311 228° Southwest 415 478 28,000  Level Washington Center
11:35AM 37.7450 -78.5436 228° Southwest 427 491 28,000  Level Washington Center
11:36AM 37.6756 -78.6458 229° Southwest 432 497 28,000  Level Washington Center
11:37AM 37.5956 -78.7581 228° Southwest 432 497 28,000  Level Washington Center
11:38AM 37.5153 -78.8700 228° Southwest 426 490 28,000  Level Washington Center
11:39AM 37.4350 -78.9814 228° Southwest 426 490 28,000  Level Washington Center
11:40AM 37.3567 -79.0931 229° Southwest 426 490 28,000  Level Washington Center
11:41AM 37.2675 -79.2169 228° Southwest 431 496 28,000  Level Washington Center
11:42AM 37.1689 -79.3061 216° Southwest 431 496 28,000  Level Washington Center
11:43AM 37.0681 -79.3922 214° Southwest 436 502 28,000  Level Washington Center
11:44AM 36.9653 -79.4756 213° Southwest 442 509 28,000  Level Washington Center
11:45AM 36.8644 -79.5589 213° Southwest 447 514 28,000  Level Washington Center
11:46AM 36.7742 -79.6344 214° Southwest 447 514 28,000  Level Washington Center
11:47AM 36.6692 -79.7172 212° Southwest 447 514 28,000 -180 Level Washington Center
11:48AM 36.5486 -79.8111 212° Southwest 437 503 27,700 -1,380 Descending Atlanta Center
11:49AM 36.4469 -79.8911 212° Southwest 437 503 25,300 -2,700 Descending Atlanta Center
11:50AM 36.3497 -79.9761 215° Southwest 443 510 22,300 -1,680 Descending Atlanta Center
11:51AM 36.2564 -80.0503 213° Southwest 423 487 22,000 -180 Descending Atlanta Center
11:52AM 36.1731 -80.1239 215° Southwest 413 475 22,000 -900 Level Atlanta Center
11:53AM 36.0817 -80.2028 215° Southwest 408 470 20,300 -2,400 Descending Atlanta Center
11:53AM 36.0089 -80.2706 217° Southwest 397 457 17,900 -2,940 Descending Atlanta Center
11:54AM 35.9417 -80.3250 213° Southwest 378 435 16,000 -2,280 Descending Atlanta Center
11:55AM 35.9069 -80.3522 212° Southwest 397 457 15,100 -2,460 Descending Atlanta Center
11:55AM 35.8603 -80.3978 218° Southwest 356 410 13,500 -2,100 Descending Atlanta Center
11:56AM 35.8256 -80.4225 210° Southwest 376 433 13,000 -780 Descending Atlanta Center
11:57AM 35.7583 -80.4792 214° Southwest 327 376 12,400 -840 Descending Atlanta Center
11:57AM 35.7200 -80.5242 224° Southwest 276 318 11,800 -1,620 Descending Atlanta Center
11:58AM 35.6828 -80.6025 240° Southwest 268 308 9,900 -1,860 Descending Atlanta Center
11:59AM 35.6686 -80.6953 259° West 269 310 8,100 -1,200 Descending Atlanta Center
12:00PM 35.6583 -80.7850 262° West 233 268 7,400 -840 Descending Atlanta Center
12:01PM 35.6222 -80.8350 228° Southwest 198 228 6,400 -780 Descending Atlanta Center
12:02PM 35.5750 -80.8700 211° Southwest 205 236 6,000 -300 Descending Atlanta Center
12:03PM 35.5281 -80.9103 215° Southwest 207 238 5,800 -480 Descending Atlanta Center
12:04PM 35.4792 -80.9478 212° Southwest 207 238 5,100 -840 Descending Atlanta Center
12:05PM 35.4256 -80.9753 203° Southwest 212 244 4,200 -840 Descending Atlanta Center
12:06PM 35.3669 -80.9672 174° South 190 219 3,400 -900 Descending Atlanta Center
12:07PM 35.3147 -80.9642 177° South 183 211 2,400 -960 Descending Atlanta Center
12:08PM 35.2664 -80.9583 174° South 175 201 1,500 -900 Descending Atlanta Center